Time;durP1;ratioP1;P1;durP2;ratioP2;P2;SDS_P1;SDS_P2;PMS_P1;PMS_P2;Temp;Humidity;BMP_temperature;BMP_pressure;BME280_temperature;BME280_humidity;BME280_pressure;Samples;Min_cycle;Max_cycle;Signal;HPM_P1;HPM_P2
2022/01/19 00:02:13;;;;;;;9.57;6.28;;;6.60;76.80;;;;;;5017277;28;20679;-74
2022/01/19 00:04:41;;;;;;;7.35;5.20;;;6.60;76.70;;;;;;5017090;28;20245;-75
2022/01/19 00:07:10;;;;;;;7.35;5.05;;;6.60;76.70;;;;;;5021141;28;20228;-76
2022/01/19 00:09:38;;;;;;;8.85;6.30;;;6.60;76.70;;;;;;5019868;28;20691;-76
2022/01/19 00:12:07;;;;;;;9.48;5.65;;;6.50;76.70;;;;;;5015766;28;20709;-76
2022/01/19 00:14:35;;;;;;;7.15;5.47;;;6.50;76.90;;;;;;5019085;28;20461;-76
2022/01/19 00:17:03;;;;;;;8.60;5.95;;;6.50;76.60;;;;;;5017533;28;20197;-76
2022/01/19 00:19:31;;;;;;;8.30;5.80;;;6.50;76.70;;;;;;5018999;28;20265;-76
2022/01/19 00:21:59;;;;;;;10.52;6.70;;;6.50;76.70;;;;;;5017504;28;20197;-78
2022/01/19 00:24:28;;;;;;;11.88;6.93;;;6.60;76.90;;;;;;5019370;28;20198;-77
2022/01/19 00:26:56;;;;;;;13.27;8.77;;;6.60;76.70;;;;;;5012617;28;20203;-77
2022/01/19 00:29:24;;;;;;;13.07;6.85;;;6.50;76.50;;;;;;5013133;28;20275;-77
2022/01/19 00:31:51;;;;;;;8.77;6.30;;;6.50;76.50;;;;;;5016913;28;20334;-77
2022/01/19 00:34:19;;;;;;;7.43;5.40;;;6.50;76.60;;;;;;5035426;28;20730;-77
2022/01/19 00:36:47;;;;;;;8.00;5.75;;;6.50;76.60;;;;;;5013976;28;20209;-77
2022/01/19 00:39:15;;;;;;;9.65;6.88;;;6.50;76.50;;;;;;5030432;28;20229;-77
2022/01/19 00:41:45;;;;;;;9.55;6.85;;;6.50;76.60;;;;;;5020168;28;20201;-77
2022/01/19 00:44:13;;;;;;;11.10;7.05;;;6.50;76.40;;;;;;5014017;28;20691;-77
2022/01/19 00:46:41;;;;;;;10.80;6.90;;;6.50;76.20;;;;;;5030639;28;20259;-78
2022/01/19 00:49:09;;;;;;;9.10;6.72;;;6.40;76.30;;;;;;5021153;28;21145;-78
2022/01/19 00:51:37;;;;;;;12.20;8.18;;;6.40;76.50;;;;;;5014328;28;20213;-77
2022/01/19 00:54:05;;;;;;;11.48;7.30;;;6.40;76.50;;;;;;5029118;28;20202;-77
2022/01/19 00:56:34;;;;;;;11.27;7.88;;;6.30;76.60;;;;;;5010386;28;20679;-77
2022/01/19 00:59:04;;;;;;;13.25;9.32;;;6.40;76.70;;;;;;5014140;28;20231;-77
2022/01/19 01:01:32;;;;;;;13.13;8.32;;;6.40;76.60;;;;;;5015866;28;20209;-77
2022/01/19 01:04:01;;;;;;;14.38;8.50;;;6.40;76.50;;;;;;5017038;28;20210;-77
2022/01/19 01:06:28;;;;;;;9.32;7.13;;;6.40;76.50;;;;;;5023674;28;20214;-77
2022/01/19 01:08:56;;;;;;;8.80;7.40;;;6.40;76.60;;;;;;5016645;28;20227;-77
2022/01/19 01:11:29;;;;;;;9.00;7.45;;;6.40;76.60;;;;;;5016607;28;20253;-77
2022/01/19 01:17:11;;;;;;;11.30;8.07;;;6.50;76.50;;;;;;5004109;28;20214;-77
2022/01/19 01:19:39;;;;;;;11.18;7.65;;;6.40;76.40;;;;;;5021349;28;20273;-77
2022/01/19 01:22:07;;;;;;;10.52;8.68;;;6.40;76.50;;;;;;5017483;28;20592;-77
2022/01/19 01:24:35;;;;;;;10.77;7.75;;;6.40;76.50;;;;;;5018737;28;20298;-76
2022/01/19 01:27:03;;;;;;;9.65;7.75;;;6.40;76.60;;;;;;5017761;28;20702;-77
2022/01/19 01:29:31;;;;;;;11.82;9.25;;;6.40;76.50;;;;;;5013022;28;20223;-77
2022/01/19 01:32:00;;;;;;;13.18;9.55;;;6.40;76.60;;;;;;5018730;28;20211;-78
2022/01/19 01:34:28;;;;;;;12.45;10.18;;;6.40;76.60;;;;;;5029619;28;20240;-78
2022/01/19 01:36:57;;;;;;;14.15;8.68;;;6.40;76.60;;;;;;5018261;28;20214;-77
2022/01/19 01:39:25;;;;;;;10.43;8.00;;;6.50;76.70;;;;;;5017163;28;20502;-77
2022/01/19 01:41:53;;;;;;;11.93;8.90;;;6.50;76.50;;;;;;5034376;28;20251;-77
2022/01/19 01:44:26;;;;;;;10.48;8.50;;;6.50;76.40;;;;;;5018915;28;20694;-75
2022/01/19 01:46:58;;;;;;;12.20;9.18;;;6.40;76.40;;;;;;5016141;28;20197;-75
2022/01/19 01:49:40;;;;;;;10.90;8.68;;;6.40;76.60;;;;;;5017069;28;20383;-75
2022/01/19 01:54:54;;;;;;;11.15;8.93;;;6.40;76.60;;;;;;5031210;28;20214;-75
2022/01/19 01:57:22;;;;;;;13.88;10.60;;;6.40;76.50;;;;;;5030176;28;20236;-75
2022/01/19 01:59:51;;;;;;;10.38;9.25;;;6.40;76.50;;;;;;5014771;28;20579;-75
2022/01/19 02:02:32;;;;;;;11.13;9.80;;;6.40;76.50;;;;;;5029709;28;20297;-75
2022/01/19 02:05:02;;;;;;;13.43;10.70;;;6.40;76.60;;;;;;5012827;28;20264;-74
2022/01/19 02:07:40;;;;;;;13.98;10.38;;;6.40;76.70;;;;;;5017671;28;20705;-75
2022/01/19 02:10:20;;;;;;;19.70;12.65;;;6.40;76.60;;;;;;5019280;28;20201;-77
2022/01/19 02:15:54;;;;;;;21.85;14.88;;;6.40;76.60;;;;;;5021217;28;20702;-76
2022/01/19 02:23:57;;;;;;;16.13;11.32;;;6.40;77.00;;;;;;5014264;28;20206;-77
2022/01/19 02:26:32;;;;;;;18.48;12.57;;;6.50;77.00;;;;;;5013245;28;20199;-76
2022/01/19 02:29:07;;;;;;;13.10;10.50;;;6.50;77.00;;;;;;5033253;28;20264;-76
2022/01/19 02:36:32;;;;;;;15.15;11.55;;;6.60;76.80;;;;;;5019597;28;20213;-76
2022/01/19 02:40:32;;;;;;;12.93;10.32;;;6.60;76.70;;;;;;5008871;28;20797;-77
2022/01/19 02:43:08;;;;;;;13.88;10.30;;;6.60;76.70;;;;;;5012205;28;20288;-77
2022/01/19 02:51:11;;;;;;;14.05;10.15;;;6.60;76.50;;;;;;5015883;28;20343;-77
2022/01/19 02:53:40;;;;;;;12.48;9.55;;;6.60;76.50;;;;;;5017425;28;20207;-77
2022/01/19 02:56:13;;;;;;;13.90;9.93;;;6.50;76.40;;;;;;5016255;28;20566;-75
2022/01/19 02:58:46;;;;;;;12.45;9.45;;;6.50;76.50;;;;;;5011465;28;20222;-76
2022/01/19 03:09:32;;;;;;;15.73;9.60;;;6.50;76.60;;;;;;5025960;28;20223;-75
2022/01/19 03:12:00;;;;;;;11.90;10.10;;;6.60;76.70;;;;;;5016856;28;20280;-75
2022/01/19 03:14:29;;;;;;;11.25;9.10;;;6.60;76.40;;;;;;5020224;28;20393;-74
2022/01/19 03:16:57;;;;;;;12.30;9.65;;;6.60;76.40;;;;;;5031360;28;20206;-75
2022/01/19 03:19:26;;;;;;;14.65;10.63;;;6.60;76.40;;;;;;5025317;28;20221;-75
2022/01/19 03:21:54;;;;;;;13.43;10.13;;;6.60;76.40;;;;;;5021546;28;20225;-75
2022/01/19 03:24:22;;;;;;;14.30;9.45;;;6.60;76.30;;;;;;5033639;28;20688;-75
2022/01/19 03:26:51;;;;;;;11.55;9.23;;;6.50;76.30;;;;;;5022776;28;20307;-77
2022/01/19 03:29:23;;;;;;;13.48;8.98;;;6.50;76.40;;;;;;5023455;28;20290;-76
2022/01/19 03:31:51;;;;;;;14.10;10.15;;;6.50;76.30;;;;;;5017583;28;20200;-76
2022/01/19 03:34:20;;;;;;;14.25;10.50;;;6.50;76.10;;;;;;5018920;28;20640;-77
2022/01/19 03:36:55;;;;;;;12.18;9.52;;;6.50;76.10;;;;;;5017116;28;20645;-77
2022/01/19 03:39:24;;;;;;;12.43;9.75;;;6.40;76.00;;;;;;5018189;28;20226;-76
2022/01/19 03:41:53;;;;;;;15.32;10.02;;;6.40;75.90;;;;;;5018204;28;20219;-76
2022/01/19 03:44:21;;;;;;;13.68;9.13;;;6.40;75.90;;;;;;5017676;28;20678;-77
2022/01/19 03:46:56;;;;;;;11.25;8.65;;;6.30;76.00;;;;;;5017239;28;20202;-77
2022/01/19 03:49:26;;;;;;;13.73;9.27;;;6.30;76.00;;;;;;5022677;28;20244;-77
2022/01/19 03:52:02;;;;;;;12.43;8.38;;;6.20;76.00;;;;;;5022326;28;20202;-77
2022/01/19 03:54:35;;;;;;;11.32;8.40;;;6.20;76.00;;;;;;5018361;28;20212;-77
2022/01/19 03:57:05;;;;;;;12.77;9.40;;;6.20;76.00;;;;;;5019679;28;20608;-77
2022/01/19 03:59:33;;;;;;;16.63;10.60;;;6.20;75.80;;;;;;5020624;28;20259;-76
2022/01/19 04:02:02;;;;;;;13.88;10.95;;;6.10;75.80;;;;;;5033065;28;20217;-76
2022/01/19 04:04:37;;;;;;;22.60;15.02;;;6.10;75.90;;;;;;5016860;28;20220;-77
2022/01/19 04:07:25;;;;;;;18.85;11.35;;;6.00;75.90;;;;;;5031141;28;20241;-76
2022/01/19 04:09:53;;;;;;;13.80;9.85;;;6.00;75.90;;;;;;5015153;28;20229;-76
2022/01/19 04:12:41;;;;;;;16.35;11.30;;;6.00;75.80;;;;;;5025611;28;20209;-77
2022/01/19 04:15:12;;;;;;;18.25;10.77;;;5.90;75.80;;;;;;5017572;28;20596;-77
2022/01/19 04:17:46;;;;;;;20.70;12.88;;;5.90;75.80;;;;;;5013060;28;20619;-77
2022/01/19 04:20:14;;;;;;;14.70;9.90;;;5.90;75.70;;;;;;5024334;28;20206;-77
2022/01/19 04:22:43;;;;;;;25.95;14.05;;;5.80;75.80;;;;;;5034676;28;20324;-77
2022/01/19 04:25:12;;;;;;;18.08;11.18;;;5.80;75.70;;;;;;5023477;28;20690;-77
2022/01/19 04:27:43;;;;;;;14.48;9.55;;;5.70;75.50;;;;;;5018197;28;20263;-77
2022/01/19 04:30:14;;;;;;;14.85;9.40;;;5.70;75.50;;;;;;5022782;28;20193;-77
2022/01/19 04:33:01;;;;;;;14.20;8.55;;;5.60;75.40;;;;;;5031782;28;20302;-77
2022/01/19 04:35:44;;;;;;;13.27;9.38;;;5.50;75.40;;;;;;5018758;28;20287;-76
2022/01/19 04:44:12;;;;;;;13.90;9.93;;;5.30;75.50;;;;;;5016756;28;20228;-76
2022/01/19 04:47:08;;;;;;;17.88;11.23;;;5.20;75.60;;;;;;5015897;28;20217;-76
2022/01/19 05:03:42;;;;;;;18.75;11.55;;;4.80;75.70;;;;;;5014911;28;20213;-76
2022/01/19 05:06:22;;;;;;;25.52;14.23;;;4.70;75.70;;;;;;5014083;28;20744;-77
2022/01/19 05:08:58;;;;;;;25.25;15.50;;;4.70;75.70;;;;;;5014092;28;21110;-76
2022/01/19 05:14:26;;;;;;;26.13;17.05;;;4.50;75.60;;;;;;4956042;28;20219;-77
2022/01/19 05:16:55;;;;;;;25.48;16.67;;;4.40;75.80;;;;;;4961806;28;20202;-77
2022/01/19 05:19:23;;;;;;;28.23;16.60;;;4.40;75.90;;;;;;4987435;28;20336;-77
2022/01/19 05:21:52;;;;;;;25.02;16.83;;;4.40;75.90;;;;;;5013442;28;20212;-77
2022/01/19 05:24:43;;;;;;;26.63;14.75;;;4.40;76.00;;;;;;5015313;28;20214;-76
2022/01/19 05:27:22;;;;;;;24.83;14.25;;;4.30;76.00;;;;;;5012493;28;20622;-77
2022/01/19 05:29:50;;;;;;;20.45;12.65;;;4.20;76.10;;;;;;5029438;28;20198;-77
2022/01/19 05:32:20;;;;;;;16.52;10.48;;;4.20;76.20;;;;;;5015779;28;20333;-77
2022/01/19 05:34:48;;;;;;;16.52;10.63;;;4.20;76.40;;;;;;5021607;28;20622;-77
2022/01/19 05:37:44;;;;;;;17.65;10.00;;;4.20;76.50;;;;;;5018037;28;20350;-77
2022/01/19 05:40:28;;;;;;;15.25;10.32;;;4.20;76.70;;;;;;5013281;28;20308;-76
2022/01/19 05:42:58;;;;;;;18.50;11.63;;;4.20;76.50;;;;;;5018808;28;20220;-77
2022/01/19 05:45:26;;;;;;;31.77;19.77;;;4.20;76.60;;;;;;5019189;28;20215;-77
2022/01/19 05:48:01;;;;;;;38.97;22.75;;;4.20;76.50;;;;;;5028520;28;20233;-77
2022/01/19 05:50:31;;;;;;;31.60;22.55;;;4.20;76.40;;;;;;5021737;28;20527;-77
2022/01/19 05:53:03;;;;;;;31.83;20.02;;;4.10;76.50;;;;;;5016835;28;20205;-77
2022/01/19 05:55:31;;;;;;;24.30;15.77;;;4.10;76.70;;;;;;5016735;28;20317;-77
2022/01/19 05:57:59;;;;;;;27.00;18.10;;;4.10;76.70;;;;;;5012587;28;20232;-77
2022/01/19 06:00:27;;;;;;;21.55;15.07;;;4.10;76.60;;;;;;5014641;28;20205;-77
2022/01/19 06:02:55;;;;;;;26.27;14.57;;;4.00;76.60;;;;;;5018636;28;20308;-77
2022/01/19 06:05:41;;;;;;;19.98;13.48;;;4.00;76.70;;;;;;5016003;28;20206;-77
2022/01/19 06:08:43;;;;;;;19.80;13.05;;;3.90;76.80;;;;;;5011273;28;20231;-77
2022/01/19 06:11:16;;;;;;;19.00;12.95;;;4.00;77.00;;;;;;5018651;28;20209;-77
2022/01/19 06:13:47;;;;;;;17.90;12.98;;;4.00;77.10;;;;;;5014714;28;20206;-77
2022/01/19 06:16:15;;;;;;;21.83;13.68;;;4.10;77.10;;;;;;5018711;28;20842;-77
2022/01/19 06:18:43;;;;;;;22.52;14.25;;;4.10;77.10;;;;;;5014911;28;20610;-77
2022/01/19 06:21:16;;;;;;;26.98;16.38;;;4.10;77.40;;;;;;5009410;28;20296;-78
2022/01/19 06:23:48;;;;;;;24.67;15.27;;;4.20;77.40;;;;;;5011947;28;20297;-77
2022/01/19 06:26:19;;;;;;;64.20;28.90;;;4.30;77.30;;;;;;5014663;28;20773;-77
2022/01/19 06:28:48;;;;;;;36.17;18.25;;;4.30;77.10;;;;;;5012567;28;20232;-77
2022/01/19 06:31:16;;;;;;;24.73;19.58;;;4.30;77.00;;;;;;5028651;28;20197;-76
2022/01/19 06:33:45;;;;;;;31.58;19.50;;;4.30;77.00;;;;;;5022547;28;20284;-77
2022/01/19 06:36:16;;;;;;;25.65;16.70;;;4.20;77.00;;;;;;5023314;28;20645;-77
2022/01/19 06:39:05;;;;;;;27.45;17.27;;;4.20;77.00;;;;;;5032421;28;20691;-77
2022/01/19 06:41:49;;;;;;;25.00;16.52;;;4.20;77.10;;;;;;5015579;28;20311;-77
2022/01/19 06:44:18;;;;;;;26.33;15.98;;;4.20;77.20;;;;;;5020605;28;20205;-77
2022/01/19 06:46:46;;;;;;;22.48;14.65;;;4.30;77.20;;;;;;5017853;28;20604;-78
2022/01/19 06:49:15;;;;;;;26.55;14.38;;;4.30;77.30;;;;;;5025764;28;20228;-77
2022/01/19 06:51:45;;;;;;;22.42;14.30;;;4.30;77.20;;;;;;5025191;28;20402;-77
2022/01/19 06:54:13;;;;;;;21.40;12.95;;;4.30;77.10;;;;;;5019159;28;20205;-77
2022/01/19 06:56:41;;;;;;;18.90;13.88;;;4.30;77.00;;;;;;5034221;28;20693;-77
2022/01/19 06:59:33;;;;;;;18.95;13.00;;;4.30;76.90;;;;;;5021925;28;20220;-77
2022/01/19 07:02:06;;;;;;;22.75;13.63;;;4.20;76.90;;;;;;5015655;28;20213;-77
2022/01/19 07:04:50;;;;;;;22.02;13.38;;;4.20;76.80;;;;;;5023297;28;20199;-77
2022/01/19 07:07:34;;;;;;;20.23;13.15;;;4.20;76.80;;;;;;5025323;28;20217;-77
2022/01/19 07:10:05;;;;;;;25.30;13.82;;;4.10;76.80;;;;;;5022112;28;20209;-77
2022/01/19 07:12:33;;;;;;;27.58;15.77;;;4.10;76.80;;;;;;5036329;28;20198;-77
2022/01/19 07:15:04;;;;;;;22.40;15.02;;;4.10;76.70;;;;;;5021479;28;20193;-77
2022/01/19 07:17:32;;;;;;;28.75;15.20;;;4.00;76.60;;;;;;5025830;28;20297;-77
2022/01/19 07:20:01;;;;;;;25.00;15.32;;;4.00;76.60;;;;;;5018833;28;20345;-77
2022/01/19 07:22:30;;;;;;;21.45;13.38;;;4.00;76.50;;;;;;5036062;28;20271;-76
2022/01/19 07:25:03;;;;;;;21.27;13.75;;;3.90;76.70;;;;;;5024878;28;20212;-76
2022/01/19 07:27:31;;;;;;;22.73;13.70;;;3.90;77.00;;;;;;5017319;28;20204;-76
2022/01/19 07:29:59;;;;;;;15.40;11.05;;;4.00;77.00;;;;;;5023691;28;20205;-77
2022/01/19 07:32:30;;;;;;;17.92;11.18;;;4.00;76.90;;;;;;5018772;28;20301;-77
2022/01/19 07:34:58;;;;;;;18.67;11.02;;;4.00;76.90;;;;;;5017316;28;20205;-77
2022/01/19 07:37:27;;;;;;;23.20;11.90;;;4.00;76.80;;;;;;5019486;28;20249;-77
2022/01/19 07:39:55;;;;;;;19.15;10.75;;;4.00;76.80;;;;;;5023828;28;20205;-77
2022/01/19 07:42:25;;;;;;;15.43;11.02;;;4.00;76.70;;;;;;5019617;28;20291;-77
2022/01/19 07:45:19;;;;;;;15.93;11.25;;;3.90;76.80;;;;;;5017163;28;20207;-77
2022/01/19 07:48:07;;;;;;;20.25;12.30;;;3.90;76.90;;;;;;5018694;28;20318;-77
2022/01/19 07:50:48;;;;;;;14.57;10.13;;;3.90;76.90;;;;;;5022737;28;20748;-77
2022/01/19 07:53:35;;;;;;;15.90;10.00;;;3.90;76.80;;;;;;5021638;28;20232;-76
2022/01/19 07:56:13;;;;;;;16.42;10.45;;;3.90;76.90;;;;;;5023315;28;20299;-77
2022/01/19 07:59:01;;;;;;;17.33;10.20;;;3.90;77.00;;;;;;5019960;28;20335;-77
2022/01/19 08:01:45;;;;;;;16.65;10.55;;;3.90;76.90;;;;;;5014524;28;20217;-77
2022/01/19 08:04:39;;;;;;;16.65;10.70;;;3.90;76.90;;;;;;5018823;28;20753;-76
2022/01/19 08:07:07;;;;;;;14.60;10.43;;;3.80;76.90;;;;;;5016745;28;21074;-77
2022/01/19 08:09:36;;;;;;;16.67;10.20;;;3.90;77.00;;;;;;5024612;28;20224;-77
2022/01/19 08:12:06;;;;;;;14.10;9.40;;;3.90;77.00;;;;;;5019186;28;20200;-77
2022/01/19 08:14:36;;;;;;;18.70;12.15;;;3.90;76.90;;;;;;5025307;28;20213;-76
2022/01/19 08:17:04;;;;;;;16.98;10.63;;;3.90;76.90;;;;;;5024086;28;20291;-77
2022/01/19 08:19:35;;;;;;;20.67;12.65;;;3.80;76.70;;;;;;5025204;28;20259;-77
2022/01/19 08:22:03;;;;;;;22.52;12.35;;;3.80;76.70;;;;;;5016913;28;20235;-76
2022/01/19 08:24:33;;;;;;;16.75;11.05;;;3.70;76.70;;;;;;5025534;28;20228;-76
2022/01/19 08:27:07;;;;;;;18.38;12.50;;;3.70;76.90;;;;;;5017965;28;20204;-77
2022/01/19 08:29:45;;;;;;;14.20;10.27;;;3.70;77.00;;;;;;5020552;28;20262;-76
2022/01/19 08:32:21;;;;;;;23.85;14.10;;;3.80;77.00;;;;;;5019564;28;20201;-77
2022/01/19 08:35:20;;;;;;;30.15;20.20;;;3.80;77.00;;;;;;5016730;28;20204;-77
2022/01/19 08:38:09;;;;;;;24.67;16.52;;;3.80;77.10;;;;;;4980521;28;20238;-76
2022/01/19 08:40:46;;;;;;;17.90;12.40;;;3.80;77.00;;;;;;5014366;28;20286;-77
2022/01/19 08:43:19;;;;;;;28.15;14.15;;;3.80;77.20;;;;;;5016035;28;20653;-76
2022/01/19 08:45:48;;;;;;;20.08;12.82;;;3.80;77.40;;;;;;5017037;28;20297;-76
2022/01/19 08:48:19;;;;;;;17.77;13.20;;;3.90;77.40;;;;;;5015626;28;20229;-77
2022/01/19 08:50:53;;;;;;;19.50;13.32;;;4.00;77.40;;;;;;5030690;28;20271;-77
2022/01/19 08:53:29;;;;;;;29.77;16.60;;;4.00;77.40;;;;;;5014807;28;20205;-77
2022/01/19 08:56:18;;;;;;;21.38;12.93;;;4.00;77.20;;;;;;5018797;28;20209;-77
2022/01/19 08:58:46;;;;;;;25.23;15.05;;;4.00;77.20;;;;;;5015341;28;20727;-77
2022/01/19 09:01:16;;;;;;;19.83;14.07;;;4.00;77.40;;;;;;5017777;28;20214;-77
2022/01/19 09:03:44;;;;;;;21.65;14.70;;;4.10;77.60;;;;;;5017252;28;20732;-77
2022/01/19 09:06:12;;;;;;;21.92;14.43;;;4.10;77.60;;;;;;5015578;28;20869;-77
2022/01/19 09:08:41;;;;;;;17.42;12.80;;;4.20;77.50;;;;;;5018985;28;20232;-77
2022/01/19 09:11:10;;;;;;;23.27;12.75;;;4.20;77.50;;;;;;5018044;28;20276;-76
2022/01/19 09:13:38;;;;;;;17.77;11.48;;;4.20;77.50;;;;;;5015966;28;20213;-77
2022/01/19 09:16:07;;;;;;;16.45;9.93;;;4.30;77.50;;;;;;5017672;28;20208;-77
2022/01/19 09:18:37;;;;;;;16.40;9.90;;;4.30;77.50;;;;;;5024932;28;20229;-77
2022/01/19 09:21:04;;;;;;;20.98;11.50;;;4.40;77.50;;;;;;5016011;28;20214;-77
2022/01/19 09:23:35;;;;;;;15.00;10.48;;;4.40;77.50;;;;;;5015012;28;20695;-77
2022/01/19 09:26:03;;;;;;;17.00;11.02;;;4.40;77.40;;;;;;5016948;28;20678;-77
2022/01/19 09:28:31;;;;;;;19.92;9.98;;;4.40;77.30;;;;;;5015495;28;20232;-77
2022/01/19 09:31:18;;;;;;;23.42;10.68;;;4.40;77.10;;;;;;5013923;28;20203;-77
2022/01/19 09:33:55;;;;;;;18.02;10.20;;;4.40;77.40;;;;;;5020345;28;20235;-77
2022/01/19 09:36:32;;;;;;;15.90;9.52;;;4.40;77.60;;;;;;5011960;28;20205;-77
2022/01/19 09:39:00;;;;;;;15.45;10.05;;;4.50;77.60;;;;;;5017408;28;20252;-77
2022/01/19 09:41:29;;;;;;;24.00;11.23;;;4.50;77.60;;;;;;5019438;28;20216;-77
2022/01/19 09:43:57;;;;;;;16.38;10.32;;;4.60;77.50;;;;;;5019786;28;20248;-77
2022/01/19 09:46:26;;;;;;;17.85;11.85;;;4.60;77.40;;;;;;5020382;28;20247;-77
2022/01/19 09:48:55;;;;;;;17.75;10.55;;;4.60;77.40;;;;;;5016759;28;20222;-77
2022/01/19 09:51:23;;;;;;;22.50;11.00;;;4.70;77.40;;;;;;5015639;28;20615;-77
2022/01/19 09:53:51;;;;;;;20.35;10.85;;;4.70;77.20;;;;;;5015701;28;20267;-77
2022/01/19 09:56:20;;;;;;;20.38;11.07;;;4.70;77.20;;;;;;5016955;28;20196;-77
2022/01/19 09:58:48;;;;;;;21.05;10.90;;;4.70;77.20;;;;;;5015521;28;20267;-77
2022/01/19 10:01:19;;;;;;;17.27;10.80;;;4.70;77.30;;;;;;5013491;28;20193;-77
2022/01/19 10:03:47;;;;;;;17.95;9.98;;;4.70;77.30;;;;;;5013502;28;20229;-77
2022/01/19 10:06:18;;;;;;;17.50;10.70;;;4.80;77.20;;;;;;5015852;28;20710;-77
2022/01/19 10:08:47;;;;;;;19.35;10.43;;;4.80;77.30;;;;;;5014433;28;20322;-77
2022/01/19 10:11:20;;;;;;;16.25;11.23;;;4.80;77.20;;;;;;5017143;28;20202;-77
2022/01/19 10:17:01;;;;;;;21.40;11.93;;;4.80;77.30;;;;;;5016753;28;20275;-77
2022/01/19 10:19:33;;;;;;;20.25;11.18;;;4.90;77.30;;;;;;5012922;28;20224;-77
2022/01/19 10:22:11;;;;;;;16.88;11.80;;;4.90;77.20;;;;;;5014872;28;20248;-77
2022/01/19 10:24:48;;;;;;;18.58;11.27;;;4.90;77.30;;;;;;5017508;28;20725;-77
2022/01/19 10:27:35;;;;;;;19.67;11.60;;;4.90;77.30;;;;;;5014936;28;20248;-77
2022/01/19 10:30:19;;;;;;;20.00;11.30;;;4.90;77.30;;;;;;5012781;28;20260;-77
2022/01/19 10:32:50;;;;;;;17.45;12.35;;;4.90;77.30;;;;;;5017391;28;20209;-77
2022/01/19 10:35:22;;;;;;;20.92;12.50;;;5.00;77.30;;;;;;5014566;28;20260;-77
2022/01/19 10:38:09;;;;;;;22.33;11.40;;;5.00;77.30;;;;;;5013517;28;20280;-76
2022/01/19 10:40:39;;;;;;;22.05;12.00;;;5.00;77.30;;;;;;5019173;28;20217;-77
2022/01/19 10:43:28;;;;;;;21.48;11.18;;;5.00;77.20;;;;;;5014557;28;20201;-77
2022/01/19 10:45:57;;;;;;;22.20;10.90;;;5.10;77.40;;;;;;5016972;28;20705;-77
2022/01/19 10:48:34;;;;;;;24.60;12.80;;;5.10;77.30;;;;;;5015889;28;20225;-77
2022/01/19 10:51:13;;;;;;;19.20;12.63;;;5.10;77.30;;;;;;5018478;28;20255;-77
2022/01/19 10:53:46;;;;;;;20.85;12.80;;;5.10;77.20;;;;;;5013380;28;20394;-77
2022/01/19 10:56:25;;;;;;;21.02;12.27;;;5.20;77.20;;;;;;5016215;28;20202;-77
2022/01/19 10:58:55;;;;;;;24.42;12.00;;;5.20;77.30;;;;;;5017081;28;20224;-77
2022/01/19 11:01:34;;;;;;;20.58;11.48;;;5.20;77.30;;;;;;5019470;28;21718;-77
2022/01/19 11:04:22;;;;;;;17.48;12.27;;;5.20;77.30;;;;;;5024720;28;20677;-77
2022/01/19 11:06:53;;;;;;;22.38;12.48;;;5.20;77.30;;;;;;5014049;28;20206;-77
2022/01/19 11:09:25;;;;;;;16.83;11.35;;;5.30;77.30;;;;;;5015345;28;20630;-76
2022/01/19 11:11:54;;;;;;;19.23;12.18;;;5.30;77.40;;;;;;5012057;28;20256;-76
2022/01/19 11:14:24;;;;;;;30.27;18.23;;;5.30;77.20;;;;;;5010504;28;20218;-76
2022/01/19 11:16:52;;;;;;;23.38;14.38;;;5.30;77.30;;;;;;5010779;28;20726;-76
2022/01/19 11:19:21;;;;;;;21.63;13.15;;;5.30;77.40;;;;;;4963381;28;20790;-76
2022/01/19 11:22:14;;;;;;;20.75;12.60;;;5.40;77.40;;;;;;5022697;28;20248;-76
2022/01/19 11:24:55;;;;;;;19.95;13.43;;;5.40;77.50;;;;;;5021283;28;20227;-76
2022/01/19 11:27:28;;;;;;;19.10;12.23;;;5.50;77.50;;;;;;5017875;28;20891;-76
2022/01/19 11:30:11;;;;;;;23.25;13.02;;;5.50;77.50;;;;;;5017555;28;20202;-76
2022/01/19 11:32:40;;;;;;;19.15;13.02;;;5.50;77.50;;;;;;5012806;28;20209;-76
2022/01/19 11:35:09;;;;;;;22.90;12.27;;;5.60;77.50;;;;;;5022448;28;20638;-80
2022/01/19 11:37:39;;;;;;;18.90;11.80;;;5.60;77.50;;;;;;5017386;28;20281;-78
2022/01/19 11:40:14;;;;;;;27.55;13.40;;;5.60;77.40;;;;;;5021638;28;20582;-77
2022/01/19 11:42:43;;;;;;;20.98;12.95;;;5.60;77.50;;;;;;5014847;28;20205;-77
2022/01/19 11:45:37;;;;;;;23.42;12.77;;;5.70;77.60;;;;;;5021013;28;20476;-77
2022/01/19 11:48:23;;;;;;;18.05;12.27;;;5.80;77.70;;;;;;5017886;28;20225;-77
2022/01/19 11:50:52;;;;;;;18.33;11.10;;;5.80;77.60;;;;;;5020848;28;20609;-77
2022/01/19 11:53:21;;;;;;;20.65;12.48;;;5.80;77.60;;;;;;5015827;28;20204;-78
2022/01/19 11:56:08;;;;;;;19.15;11.98;;;5.80;77.40;;;;;;5019069;28;20197;-78
2022/01/19 11:58:36;;;;;;;20.77;12.90;;;5.80;77.40;;;;;;5016503;28;20287;-78
2022/01/19 12:01:21;;;;;;;20.10;13.00;;;5.80;77.40;;;;;;5019378;28;20198;-77
2022/01/19 12:03:49;;;;;;;23.17;13.23;;;5.80;77.40;;;;;;5022212;28;20259;-77
2022/01/19 12:06:36;;;;;;;21.15;12.18;;;5.80;77.40;;;;;;5016315;28;20245;-77
2022/01/19 12:09:08;;;;;;;18.38;12.52;;;5.80;77.40;;;;;;5023739;28;20233;-77
2022/01/19 12:11:44;;;;;;;18.70;12.85;;;5.90;77.40;;;;;;5028713;28;20206;-77
2022/01/19 12:14:17;;;;;;;21.15;13.45;;;5.90;77.30;;;;;;5017707;28;20690;-76
2022/01/19 12:16:57;;;;;;;20.48;11.75;;;5.90;77.40;;;;;;5014586;28;20273;-76
2022/01/19 12:19:28;;;;;;;16.20;10.90;;;5.90;77.30;;;;;;5012902;28;20214;-77
2022/01/19 12:22:06;;;;;;;16.55;11.15;;;5.90;77.30;;;;;;5017005;28;20537;-76
2022/01/19 12:24:38;;;;;;;18.33;10.93;;;5.90;77.30;;;;;;5013680;28;20193;-77
2022/01/19 12:27:11;;;;;;;17.38;10.90;;;5.90;77.40;;;;;;5018398;28;20210;-77
2022/01/19 12:29:46;;;;;;;14.43;10.32;;;6.00;77.30;;;;;;5013866;28;20575;-78
2022/01/19 12:32:34;;;;;;;16.65;9.82;;;6.00;77.20;;;;;;5014149;28;20292;-78
2022/01/19 12:35:11;;;;;;;18.15;10.60;;;6.00;77.10;;;;;;5018148;28;20229;-75
2022/01/19 12:37:43;;;;;;;19.17;11.80;;;5.90;77.20;;;;;;5016381;28;20230;-75
2022/01/19 12:40:47;;;;;;;15.07;10.40;;;5.90;77.00;;;;;;5021014;28;20272;-74
2022/01/19 12:43:32;;;;;;;21.20;11.75;;;6.00;77.20;;;;;;5012277;28;20749;-80
2022/01/19 12:46:02;;;;;;;14.85;10.32;;;6.00;77.10;;;;;;5015336;28;20233;-79
2022/01/19 12:48:40;;;;;;;19.10;11.98;;;5.90;77.10;;;;;;5024079;28;20644;-78
2022/01/19 12:51:28;;;;;;;16.17;10.23;;;6.00;77.10;;;;;;5015043;28;20207;-79
2022/01/19 12:53:56;;;;;;;20.00;11.93;;;6.00;76.90;;;;;;5011317;28;20688;-79
2022/01/19 12:56:53;;;;;;;15.45;10.50;;;6.00;77.00;;;;;;5016212;28;20619;-79
2022/01/19 12:59:23;;;;;;;17.85;11.75;;;5.90;76.90;;;;;;5017971;28;20234;-79
2022/01/19 13:01:50;;;;;;;15.75;9.80;;;5.90;77.00;;;;;;5014712;28;20197;-78
2022/01/19 13:04:27;;;;;;;17.23;10.25;;;5.90;77.00;;;;;;5020778;28;20202;-77
2022/01/19 13:06:57;;;;;;;15.10;9.90;;;5.90;76.90;;;;;;5014739;28;20230;-76
2022/01/19 13:09:31;;;;;;;16.50;9.82;;;6.00;77.00;;;;;;5007196;28;20245;-76
2022/01/19 13:12:01;;;;;;;15.45;9.32;;;6.00;77.00;;;;;;5016349;28;20711;-78
2022/01/19 13:14:31;;;;;;;16.48;10.38;;;6.00;76.90;;;;;;5017352;28;20895;-76
2022/01/19 13:16:59;;;;;;;14.38;10.10;;;6.00;76.70;;;;;;5008494;28;20231;-76
2022/01/19 13:19:27;;;;;;;19.50;10.40;;;6.00;76.50;;;;;;5012806;28;20759;-78
2022/01/19 13:22:01;;;;;;;16.00;9.98;;;5.90;76.60;;;;;;5015177;28;20667;-75
2022/01/19 13:24:32;;;;;;;14.95;10.15;;;5.90;76.70;;;;;;5017255;28;20206;-75
2022/01/19 13:27:03;;;;;;;13.00;8.98;;;5.90;76.70;;;;;;5012378;28;20219;-74
2022/01/19 13:29:36;;;;;;;17.75;11.23;;;5.90;76.90;;;;;;5012197;28;20224;-75
2022/01/19 13:32:08;;;;;;;15.80;10.48;;;5.90;76.80;;;;;;5020902;28;20259;-78
2022/01/19 13:34:51;;;;;;;18.20;11.75;;;5.90;76.80;;;;;;5020080;28;20304;-75
2022/01/19 13:37:19;;;;;;;16.73;9.93;;;5.90;76.80;;;;;;5015876;28;20268;-74
2022/01/19 13:39:55;;;;;;;14.65;10.27;;;5.90;76.70;;;;;;5013283;28;20446;-78
2022/01/19 13:42:40;;;;;;;16.02;9.32;;;5.90;76.90;;;;;;5012778;28;20279;-78
2022/01/19 13:45:18;;;;;;;15.18;10.15;;;5.90;76.70;;;;;;5015002;28;20199;-78
2022/01/19 13:48:02;;;;;;;15.88;9.70;;;5.90;76.70;;;;;;5019619;28;20236;-78
2022/01/19 13:50:31;;;;;;;16.00;10.23;;;5.90;76.80;;;;;;5014962;28;20209;-78
2022/01/19 13:53:00;;;;;;;16.48;9.48;;;5.90;76.80;;;;;;5015341;28;20211;-78
2022/01/19 13:55:29;;;;;;;15.85;9.80;;;5.90;76.80;;;;;;5015806;28;20256;-78
2022/01/19 13:58:09;;;;;;;14.98;9.63;;;5.80;76.80;;;;;;5017665;28;20474;-78
2022/01/19 14:00:50;;;;;;;14.80;9.85;;;5.90;77.00;;;;;;5016405;28;20815;-77
2022/01/19 14:03:20;;;;;;;17.00;10.00;;;5.90;77.00;;;;;;5013830;28;20289;-77
2022/01/19 14:05:51;;;;;;;18.42;11.15;;;5.90;76.80;;;;;;5014980;28;20206;-77
2022/01/19 14:08:28;;;;;;;15.23;10.35;;;5.80;76.80;;;;;;5018340;28;20231;-78
2022/01/19 14:10:56;;;;;;;14.25;9.10;;;5.80;76.90;;;;;;5015519;28;20251;-75
2022/01/19 14:13:31;;;;;;;14.73;10.27;;;5.80;76.90;;;;;;5013517;28;20205;-75